createdAt,value
2018-03-16T18:11:59.867Z,2.40
2018-03-16T18:14:28.543Z,8.63
2018-03-16T18:16:56.927Z,2.63
2018-03-16T18:19:25.319Z,2.63
2018-03-16T18:21:53.951Z,2.85
2018-03-16T18:24:22.445Z,4.63
2018-03-16T18:26:51.096Z,5.77
2018-03-16T18:29:20.246Z,4.53
2018-03-16T18:31:49.441Z,6.03
2018-03-16T18:34:18.146Z,5.12
2018-03-16T18:36:46.534Z,2.80
2018-03-16T18:39:14.922Z,4.57
2018-03-16T18:41:43.585Z,3.67
2018-03-16T18:44:12.230Z,7.40
2018-03-16T18:46:40.754Z,3.00
2018-03-16T18:49:09.402Z,3.47
2018-03-16T18:51:38.829Z,2.83
2018-03-16T18:54:07.470Z,5.12
2018-03-16T18:56:35.874Z,2.33
2018-03-16T18:59:03.596Z,4.10
2018-03-16T19:01:32.741Z,2.90
2018-03-16T19:04:01.098Z,3.00
2018-03-16T19:06:29.710Z,4.10
2018-03-16T19:08:58.387Z,4.83
2018-03-16T19:11:26.881Z,3.07
2018-03-16T19:13:55.520Z,3.15
2018-03-16T19:16:24.837Z,3.53
2018-03-16T19:18:53.218Z,6.03
2018-03-16T19:21:21.611Z,5.33
2018-03-16T19:23:49.997Z,4.30
2018-03-16T19:26:18.651Z,3.62
2018-03-16T19:28:46.877Z,3.70
2018-03-16T19:31:15.877Z,5.75
2018-03-16T19:33:44.297Z,4.60
2018-03-16T19:36:12.679Z,8.20
2018-03-16T19:38:41.070Z,8.60
2018-03-16T19:41:09.458Z,6.30
2018-03-16T19:43:38.110Z,9.38
2018-03-16T19:46:06.503Z,5.53
2018-03-16T19:48:34.887Z,6.57
2018-03-16T19:51:03.543Z,5.60
2018-03-16T19:53:32.187Z,4.70
2018-03-16T19:56:00.830Z,7.90
2018-03-16T19:58:29.328Z,4.87
2018-03-16T20:00:57.713Z,5.70
2018-03-16T20:03:26.452Z,6.57
2018-03-16T20:05:55.866Z,17.87
2018-03-16T20:08:24.266Z,26.30
2018-03-16T20:10:52.650Z,32.60
2018-03-16T20:13:21.529Z,45.10
2018-03-16T20:15:49.930Z,31.03
2018-03-16T20:18:18.329Z,20.67
2018-03-16T20:20:46.749Z,16.13
2018-03-16T20:23:14.827Z,14.87
2018-03-16T20:25:45.054Z,18.30
2018-03-16T20:28:13.363Z,16.00
2018-03-16T20:30:42.031Z,14.35
2018-03-16T20:33:10.683Z,10.70
2018-03-16T20:35:39.475Z,8.37
2018-03-16T20:38:07.547Z,6.87
2018-03-16T20:40:37.212Z,7.15
2018-03-16T20:43:06.380Z,8.30
2018-03-16T20:45:34.821Z,5.33
2018-03-16T20:48:03.405Z,6.47
2018-03-16T20:50:32.827Z,8.40
2018-03-16T20:53:01.475Z,6.93
2018-03-16T20:55:30.123Z,9.23
2018-03-16T20:57:59.387Z,9.13
2018-03-16T21:00:27.811Z,5.40
2018-03-16T21:02:56.466Z,4.67
2018-03-16T21:05:24.962Z,6.67
2018-03-16T21:07:54.115Z,9.13
2018-03-16T21:10:22.651Z,5.00
2018-03-16T21:12:51.294Z,7.50
2018-03-16T21:15:19.686Z,8.00
2018-03-16T21:17:48.170Z,7.90
2018-03-16T21:20:16.921Z,8.23
2018-03-16T21:22:45.618Z,13.73
2018-03-16T21:25:14.002Z,9.77
2018-03-16T21:27:42.649Z,13.65
2018-03-16T21:30:11.978Z,9.73
2018-03-16T21:32:40.622Z,9.63
2018-03-16T21:35:08.849Z,11.10
2018-03-16T21:37:38.038Z,14.10
2018-03-16T21:40:06.646Z,9.50
2018-03-16T21:42:35.925Z,11.90
2018-03-16T21:45:03.738Z,12.50
2018-03-16T21:47:32.411Z,13.70
2018-03-16T21:50:01.561Z,10.43
2018-03-16T21:52:30.223Z,8.00
2018-03-16T21:54:58.827Z,10.43
2018-03-16T21:57:27.219Z,7.90
2018-03-16T21:59:55.591Z,7.07
2018-03-16T22:02:24.315Z,9.13
2018-03-16T22:04:53.673Z,7.95
2018-03-16T22:07:22.073Z,9.33
2018-03-16T22:09:50.714Z,6.78
2018-03-16T22:12:19.098Z,8.00
2018-03-16T22:14:47.482Z,8.90
2018-03-16T22:17:15.903Z,10.10
2018-03-16T22:19:44.452Z,8.93
2018-03-16T22:22:12.892Z,7.50
2018-03-16T22:24:41.267Z,8.37
2018-03-16T22:27:09.587Z,8.83
2018-03-16T22:29:37.970Z,7.60
2018-03-16T22:32:06.682Z,7.87
2018-03-16T22:34:35.826Z,14.90
2018-03-16T22:37:04.210Z,11.43
2018-03-16T22:39:32.872Z,9.38
2018-03-16T22:42:02.318Z,11.98
2018-03-16T22:44:30.702Z,8.57
2018-03-16T22:46:59.084Z,10.60
2018-03-16T22:49:27.746Z,13.27
2018-03-16T22:51:56.421Z,9.20
2018-03-16T22:54:24.835Z,9.50
2018-03-16T22:56:53.461Z,15.47
2018-03-16T22:59:22.279Z,7.25
2018-03-16T23:01:50.851Z,8.30
2018-03-16T23:04:19.231Z,13.35
2018-03-16T23:06:47.607Z,10.73
2018-03-16T23:09:16.066Z,9.70
2018-03-16T23:11:44.119Z,8.23
2018-03-16T23:14:12.506Z,13.43
2018-03-16T23:16:40.870Z,8.00
2018-03-16T23:19:09.535Z,10.52
2018-03-16T23:21:38.993Z,13.77
2018-03-16T23:24:07.646Z,10.93
2018-03-16T23:26:36.046Z,7.43
2018-03-16T23:29:04.094Z,10.63
2018-03-16T23:31:32.462Z,9.37
2018-03-16T23:34:01.156Z,15.03
2018-03-16T23:36:30.564Z,7.70
2018-03-16T23:38:59.105Z,9.73
2018-03-16T23:41:27.812Z,10.57
2018-03-16T23:43:56.885Z,9.13
2018-03-16T23:46:25.271Z,15.63
2018-03-16T23:48:53.645Z,7.50
2018-03-16T23:51:21.709Z,10.53
2018-03-16T23:53:50.515Z,15.98
2018-03-16T23:56:19.377Z,9.87
2018-03-16T23:58:48.035Z,10.90
